EWG56D EDDL-EGBB
Flight info
| Callsign | EWG56D |
|---|---|
| Flight time | 1h 9m |
| Altitude | 36000 |
| Route | SONEB6Z SONEB P64 TENLI L602 FLEVO L980 PAM DCT NOGRO M40 SABER L980 LAM L610 HEMEL |
| Aircraft | A320/M-SDE3FGHIRWY/LB1 |
Departure
| Time | 2026-05-05 13:34 |
|---|---|
| Airport | Düsseldorf Airport (EDDL) |
Arrival
| Time | 2026-05-05 14:44 |
|---|---|
| Airport | Birmingham Airport (EGBB) |
| Time | Latitude | Longitude | Altitude | Speed | Heading |
|---|---|---|---|---|---|
| 2026-05-05 13:07 | 51.28150 | 6.76545 | 131 ft | 0 kts | 96° |
| 2026-05-05 13:25 | 51.28151 | 6.76530 | 130 ft | 4 kts | 94° |
| 2026-05-05 13:26 | 51.28151 | 6.76487 | 128 ft | 4 kts | 81° |
| 2026-05-05 13:26 | 51.28144 | 6.76447 | 126 ft | 4 kts | 57° |
| 2026-05-05 13:26 | 51.28126 | 6.76419 | 126 ft | 4 kts | 10° |
| 2026-05-05 13:26 | 51.28101 | 6.76418 | 128 ft | 4 kts | 345° |
| 2026-05-05 13:27 | 51.28077 | 6.76435 | 125 ft | 4 kts | 326° |
| 2026-05-05 13:27 | 51.28066 | 6.76447 | 127 ft | 0 kts | 327° |
| 2026-05-05 13:30 | 51.28067 | 6.76446 | 125 ft | 2 kts | 327° |
| 2026-05-05 13:30 | 51.28098 | 6.76412 | 128 ft | 7 kts | 325° |
| 2026-05-05 13:30 | 51.28133 | 6.76349 | 128 ft | 8 kts | 301° |
| 2026-05-05 13:30 | 51.28167 | 6.76277 | 126 ft | 9 kts | 320° |
| 2026-05-05 13:31 | 51.28202 | 6.76184 | 127 ft | 11 kts | 258° |
| 2026-05-05 13:31 | 51.28163 | 6.76092 | 124 ft | 11 kts | 231° |
| 2026-05-05 13:31 | 51.28114 | 6.75991 | 128 ft | 11 kts | 232° |
| 2026-05-05 13:31 | 51.28061 | 6.75878 | 127 ft | 15 kts | 233° |
| 2026-05-05 13:32 | 51.28003 | 6.75755 | 127 ft | 13 kts | 233° |
| 2026-05-05 13:32 | 51.27953 | 6.75651 | 127 ft | 11 kts | 232° |
| 2026-05-05 13:32 | 51.27903 | 6.75547 | 124 ft | 12 kts | 233° |
| 2026-05-05 13:32 | 51.27858 | 6.75451 | 122 ft | 9 kts | 232° |
| 2026-05-05 13:33 | 51.27844 | 6.75361 | 123 ft | 9 kts | 297° |
| 2026-05-05 13:33 | 51.27902 | 6.75301 | 123 ft | 12 kts | 332° |
| 2026-05-05 13:33 | 51.27991 | 6.75279 | 120 ft | 14 kts | 26° |
| 2026-05-05 13:33 | 51.28060 | 6.75409 | 122 ft | 21 kts | 53° |
| 2026-05-05 13:34 | 51.28283 | 6.75873 | 129 ft | 87 kts | 53° |
| 2026-05-05 13:34 | 51.28773 | 6.76900 | 134 ft | 142 kts | 53° |
| 2026-05-05 13:34 | 51.29403 | 6.78241 | 638 ft | 150 kts | 50° |
| 2026-05-05 13:34 | 51.30012 | 6.79575 | 1411 ft | 147 kts | 52° |
| 2026-05-05 13:35 | 51.30642 | 6.80901 | 1961 ft | 157 kts | 52° |
| 2026-05-05 13:35 | 51.31348 | 6.82379 | 2244 ft | 178 kts | 52° |
| 2026-05-05 13:35 | 51.32146 | 6.84046 | 2535 ft | 197 kts | 52° |
| 2026-05-05 13:35 | 51.32987 | 6.85815 | 2997 ft | 203 kts | 53° |
| 2026-05-05 13:36 | 51.33847 | 6.87639 | 3492 ft | 208 kts | 51° |
| 2026-05-05 13:36 | 51.34933 | 6.89318 | 3723 ft | 234 kts | 36° |
| 2026-05-05 13:36 | 51.36429 | 6.90628 | 4116 ft | 258 kts | 20° |
| 2026-05-05 13:36 | 51.38223 | 6.91288 | 4795 ft | 269 kts | 9° |
| 2026-05-05 13:37 | 51.40092 | 6.91781 | 5588 ft | 276 kts | 9° |
| 2026-05-05 13:37 | 51.42003 | 6.92294 | 6398 ft | 282 kts | 9° |
| 2026-05-05 13:37 | 51.43954 | 6.92815 | 7195 ft | 286 kts | 9° |
| 2026-05-05 13:37 | 51.45937 | 6.93344 | 7991 ft | 291 kts | 9° |
| 2026-05-05 13:38 | 51.47947 | 6.93881 | 8818 ft | 296 kts | 9° |
| 2026-05-05 13:38 | 51.50009 | 6.94155 | 9626 ft | 300 kts | 357° |
| 2026-05-05 13:38 | 51.52070 | 6.93714 | 10258 ft | 311 kts | 349° |
| 2026-05-05 13:38 | 51.54282 | 6.93087 | 10507 ft | 335 kts | 349° |
| 2026-05-05 13:39 | 51.56646 | 6.92417 | 10797 ft | 353 kts | 349° |
| 2026-05-05 13:39 | 51.59094 | 6.91729 | 11428 ft | 360 kts | 350° |
| 2026-05-05 13:39 | 51.61569 | 6.91040 | 12169 ft | 362 kts | 350° |
| 2026-05-05 13:39 | 51.64061 | 6.90346 | 12916 ft | 364 kts | 351° |
| 2026-05-05 13:40 | 51.66569 | 6.89644 | 13698 ft | 366 kts | 351° |
| 2026-05-05 13:40 | 51.69084 | 6.88936 | 14344 ft | 369 kts | 350° |
| 2026-05-05 13:40 | 51.71593 | 6.88209 | 14945 ft | 373 kts | 349° |
| 2026-05-05 13:40 | 51.74143 | 6.87341 | 15542 ft | 377 kts | 347° |
| 2026-05-05 13:41 | 51.76711 | 6.86365 | 16143 ft | 381 kts | 346° |
| 2026-05-05 13:41 | 51.79302 | 6.85334 | 16714 ft | 386 kts | 346° |
| 2026-05-05 13:41 | 51.81923 | 6.84281 | 17291 ft | 390 kts | 346° |
| 2026-05-05 13:41 | 51.84569 | 6.83231 | 17852 ft | 394 kts | 346° |
| 2026-05-05 13:42 | 51.87246 | 6.82188 | 18379 ft | 398 kts | 346° |
| 2026-05-05 13:42 | 51.89953 | 6.81148 | 18868 ft | 401 kts | 346° |
| 2026-05-05 13:42 | 51.92646 | 6.80121 | 19356 ft | 404 kts | 346° |
| 2026-05-05 13:42 | 51.95394 | 6.79077 | 19845 ft | 407 kts | 346° |
| 2026-05-05 13:43 | 51.98142 | 6.77900 | 20335 ft | 410 kts | 340° |
| 2026-05-05 13:43 | 52.00741 | 6.75996 | 20821 ft | 411 kts | 329° |
| 2026-05-05 13:43 | 52.03084 | 6.73339 | 21301 ft | 412 kts | 318° |
| 2026-05-05 13:43 | 52.05097 | 6.70038 | 21788 ft | 412 kts | 307° |
| 2026-05-05 13:44 | 52.06793 | 6.66278 | 22262 ft | 413 kts | 303° |
| 2026-05-05 13:44 | 52.08458 | 6.62456 | 22732 ft | 416 kts | 303° |
| 2026-05-05 13:44 | 52.10135 | 6.58611 | 23193 ft | 418 kts | 303° |
| 2026-05-05 13:44 | 52.11824 | 6.54740 | 23635 ft | 420 kts | 303° |
| 2026-05-05 13:45 | 52.13495 | 6.50899 | 24034 ft | 422 kts | 303° |
| 2026-05-05 13:45 | 52.15193 | 6.46980 | 24421 ft | 424 kts | 303° |
| 2026-05-05 13:45 | 52.16892 | 6.43046 | 24810 ft | 426 kts | 302° |
| 2026-05-05 13:45 | 52.18598 | 6.39093 | 25190 ft | 427 kts | 302° |
| 2026-05-05 13:46 | 52.20310 | 6.35123 | 25574 ft | 429 kts | 302° |
| 2026-05-05 13:46 | 52.22025 | 6.31137 | 25945 ft | 430 kts | 302° |
| 2026-05-05 13:46 | 52.23720 | 6.27105 | 26315 ft | 431 kts | 298° |
| 2026-05-05 13:46 | 52.25101 | 6.22784 | 26667 ft | 429 kts | 289° |
| 2026-05-05 13:47 | 52.26130 | 6.18224 | 27042 ft | 429 kts | 286° |
| 2026-05-05 13:47 | 52.27109 | 6.13682 | 27396 ft | 430 kts | 286° |
| 2026-05-05 13:47 | 52.28104 | 6.09069 | 27754 ft | 432 kts | 286° |
| 2026-05-05 13:47 | 52.29105 | 6.04433 | 28086 ft | 434 kts | 285° |
| 2026-05-05 13:48 | 52.30111 | 5.99775 | 28428 ft | 435 kts | 285° |
| 2026-05-05 13:48 | 52.31117 | 5.95108 | 28741 ft | 437 kts | 285° |
| 2026-05-05 13:48 | 52.32126 | 5.90410 | 29057 ft | 438 kts | 285° |
| 2026-05-05 13:48 | 52.33135 | 5.85700 | 29366 ft | 440 kts | 285° |
| 2026-05-05 13:49 | 52.34146 | 5.80970 | 29666 ft | 442 kts | 285° |
| 2026-05-05 13:49 | 52.35157 | 5.76214 | 29959 ft | 444 kts | 285° |
| 2026-05-05 13:49 | 52.36165 | 5.71452 | 30298 ft | 443 kts | 285° |
| 2026-05-05 13:49 | 52.37142 | 5.66757 | 30667 ft | 440 kts | 282° |
| 2026-05-05 13:50 | 52.37802 | 5.61912 | 31038 ft | 433 kts | 274° |
| 2026-05-05 13:50 | 52.38004 | 5.57032 | 31409 ft | 428 kts | 265° |
| 2026-05-05 13:50 | 52.37765 | 5.52211 | 31776 ft | 422 kts | 258° |
| 2026-05-05 13:50 | 52.37294 | 5.47480 | 32157 ft | 420 kts | 257° |
| 2026-05-05 13:51 | 52.36825 | 5.42768 | 32538 ft | 419 kts | 257° |
| 2026-05-05 13:51 | 52.36361 | 5.38080 | 32918 ft | 417 kts | 257° |
| 2026-05-05 13:51 | 52.35894 | 5.33410 | 33301 ft | 415 kts | 257° |
| 2026-05-05 13:51 | 52.35431 | 5.28765 | 33685 ft | 413 kts | 257° |
| 2026-05-05 13:52 | 52.34974 | 5.24199 | 34035 ft | 411 kts | 257° |
| 2026-05-05 13:52 | 52.34511 | 5.19587 | 34317 ft | 411 kts | 257° |
| 2026-05-05 13:52 | 52.34048 | 5.14965 | 34554 ft | 412 kts | 257° |
| 2026-05-05 13:52 | 52.33581 | 5.10339 | 34766 ft | 413 kts | 256° |
| 2026-05-05 13:53 | 52.32861 | 5.05809 | 34977 ft | 412 kts | 250° |
| 2026-05-05 13:53 | 52.32040 | 5.01321 | 35158 ft | 413 kts | 250° |
| 2026-05-05 13:53 | 52.31492 | 4.98345 | 35291 ft | 413 kts | 250° |
| 2026-05-05 13:53 | 52.30658 | 4.93839 | 35495 ft | 414 kts | 250° |
| 2026-05-05 13:54 | 52.29552 | 4.87864 | 35750 ft | 416 kts | 251° |
| 2026-05-05 13:54 | 52.28717 | 4.83342 | 35905 ft | 417 kts | 251° |
| 2026-05-05 13:54 | 52.27027 | 4.74243 | 35948 ft | 419 kts | 251° |
| 2026-05-05 13:55 | 52.25328 | 4.65126 | 35947 ft | 420 kts | 251° |
| 2026-05-05 13:55 | 52.23908 | 4.57531 | 35946 ft | 421 kts | 251° |
| 2026-05-05 13:56 | 52.21907 | 4.46909 | 35941 ft | 422 kts | 250° |
| 2026-05-05 13:56 | 52.20176 | 4.37766 | 35925 ft | 422 kts | 250° |
| 2026-05-05 13:57 | 52.18438 | 4.28626 | 35924 ft | 422 kts | 250° |
| 2026-05-05 13:57 | 52.16985 | 4.21030 | 35926 ft | 423 kts | 250° |
| 2026-05-05 13:58 | 52.15226 | 4.11882 | 35928 ft | 423 kts | 250° |
| 2026-05-05 13:58 | 52.13172 | 4.01249 | 35928 ft | 424 kts | 250° |
| 2026-05-05 13:59 | 52.10812 | 3.89045 | 35932 ft | 425 kts | 250° |
| 2026-05-05 14:00 | 52.08124 | 3.75285 | 35932 ft | 426 kts | 250° |
| 2026-05-05 14:00 | 52.06317 | 3.66111 | 35934 ft | 427 kts | 250° |
| 2026-05-05 14:01 | 52.04502 | 3.56924 | 35940 ft | 427 kts | 250° |
| 2026-05-05 14:01 | 52.02692 | 3.47805 | 35940 ft | 427 kts | 250° |
| 2026-05-05 14:02 | 52.00867 | 3.38625 | 35943 ft | 428 kts | 250° |
| 2026-05-05 14:02 | 51.99031 | 3.29438 | 35945 ft | 428 kts | 250° |
| 2026-05-05 14:03 | 51.97183 | 3.20267 | 35946 ft | 428 kts | 251° |
| 2026-05-05 14:03 | 51.96142 | 3.10758 | 35951 ft | 430 kts | 262° |
| 2026-05-05 14:04 | 51.95526 | 3.01169 | 35956 ft | 431 kts | 262° |
| 2026-05-05 14:04 | 51.94888 | 2.91507 | 35954 ft | 431 kts | 262° |
| 2026-05-05 14:05 | 51.94245 | 2.81844 | 35957 ft | 431 kts | 262° |
| 2026-05-05 14:05 | 51.93592 | 2.72176 | 35957 ft | 432 kts | 262° |
| 2026-05-05 14:06 | 51.92935 | 2.62507 | 35957 ft | 432 kts | 262° |
| 2026-05-05 14:06 | 51.92281 | 2.52898 | 35960 ft | 432 kts | 262° |
| 2026-05-05 14:07 | 51.91606 | 2.43227 | 35963 ft | 432 kts | 262° |
| 2026-05-05 14:07 | 51.90920 | 2.33546 | 35964 ft | 433 kts | 262° |
| 2026-05-05 14:08 | 51.90470 | 2.23823 | 35963 ft | 434 kts | 266° |
| 2026-05-05 14:08 | 51.90323 | 2.14120 | 35969 ft | 434 kts | 267° |
| 2026-05-05 14:09 | 51.90187 | 2.04352 | 35970 ft | 434 kts | 266° |
| 2026-05-05 14:09 | 51.89959 | 1.94591 | 35972 ft | 434 kts | 265° |
| 2026-05-05 14:10 | 51.89060 | 1.85000 | 35973 ft | 430 kts | 250° |
| 2026-05-05 14:10 | 51.87179 | 1.75876 | 35970 ft | 430 kts | 250° |
| 2026-05-05 14:11 | 51.85306 | 1.66676 | 35970 ft | 431 kts | 250° |
| 2026-05-05 14:11 | 51.83434 | 1.57477 | 35972 ft | 431 kts | 250° |
| 2026-05-05 14:12 | 51.81545 | 1.48280 | 35970 ft | 431 kts | 250° |
| 2026-05-05 14:12 | 51.79651 | 1.39150 | 35967 ft | 431 kts | 250° |
| 2026-05-05 14:13 | 51.77738 | 1.29967 | 35971 ft | 432 kts | 250° |
| 2026-05-05 14:13 | 51.75821 | 1.20781 | 35973 ft | 432 kts | 250° |
| 2026-05-05 14:14 | 51.73892 | 1.11594 | 35968 ft | 432 kts | 250° |
| 2026-05-05 14:14 | 51.71948 | 1.02412 | 35970 ft | 432 kts | 250° |
| 2026-05-05 14:15 | 51.70276 | 0.93169 | 35971 ft | 434 kts | 260° |
| 2026-05-05 14:15 | 51.69603 | 0.83479 | 35970 ft | 435 kts | 262° |
| 2026-05-05 14:16 | 51.68916 | 0.73793 | 35971 ft | 435 kts | 262° |
| 2026-05-05 14:16 | 51.68214 | 0.64115 | 35974 ft | 435 kts | 262° |
| 2026-05-05 14:17 | 51.67521 | 0.54496 | 35975 ft | 435 kts | 262° |
| 2026-05-05 14:17 | 51.66816 | 0.44825 | 35973 ft | 435 kts | 262° |
| 2026-05-05 14:18 | 51.66105 | 0.35158 | 35788 ft | 435 kts | 262° |
| 2026-05-05 14:18 | 51.65745 | 0.30303 | 34564 ft | 439 kts | 261° |
| 2026-05-05 14:18 | 51.65376 | 0.25400 | 33154 ft | 443 kts | 261° |
| 2026-05-05 14:19 | 51.65105 | 0.20442 | 31646 ft | 447 kts | 267° |
| 2026-05-05 14:19 | 51.65318 | 0.15418 | 30285 ft | 452 kts | 276° |
| 2026-05-05 14:19 | 51.66041 | 0.10549 | 28932 ft | 454 kts | 286° |
| 2026-05-05 14:19 | 51.67255 | 0.05937 | 28370 ft | 437 kts | 292° |
| 2026-05-05 14:20 | 51.68507 | 0.01586 | 27791 ft | 420 kts | 292° |
| 2026-05-05 14:20 | 51.69690 | -0.02627 | 27224 ft | 406 kts | 291° |
| 2026-05-05 14:20 | 51.70822 | -0.06717 | 26662 ft | 393 kts | 291° |
| 2026-05-05 14:20 | 51.71921 | -0.10715 | 26110 ft | 389 kts | 291° |
| 2026-05-05 14:21 | 51.73011 | -0.14689 | 25568 ft | 386 kts | 292° |
| 2026-05-05 14:21 | 51.74094 | -0.18621 | 25010 ft | 382 kts | 292° |
| 2026-05-05 14:21 | 51.75172 | -0.22521 | 24489 ft | 380 kts | 292° |
| 2026-05-05 14:21 | 51.76237 | -0.26362 | 23962 ft | 380 kts | 292° |
| 2026-05-05 14:22 | 51.77312 | -0.30241 | 23435 ft | 378 kts | 293° |
| 2026-05-05 14:22 | 51.78384 | -0.34099 | 22888 ft | 374 kts | 293° |
| 2026-05-05 14:22 | 51.79541 | -0.37839 | 22412 ft | 371 kts | 300° |
| 2026-05-05 14:22 | 51.81065 | -0.41175 | 21949 ft | 369 kts | 310° |
| 2026-05-05 14:23 | 51.82957 | -0.44043 | 21600 ft | 382 kts | 321° |
| 2026-05-05 14:23 | 51.85194 | -0.46430 | 21233 ft | 388 kts | 328° |
| 2026-05-05 14:23 | 51.87512 | -0.48674 | 20877 ft | 388 kts | 327° |
| 2026-05-05 14:23 | 51.89822 | -0.50920 | 20502 ft | 387 kts | 327° |
| 2026-05-05 14:24 | 51.92091 | -0.53135 | 20137 ft | 385 kts | 327° |
| 2026-05-05 14:24 | 51.94376 | -0.55371 | 19773 ft | 383 kts | 327° |
| 2026-05-05 14:24 | 51.96652 | -0.57597 | 19410 ft | 381 kts | 327° |
| 2026-05-05 14:24 | 51.98917 | -0.59810 | 19052 ft | 379 kts | 328° |
| 2026-05-05 14:25 | 52.01170 | -0.62009 | 18692 ft | 377 kts | 328° |
| 2026-05-05 14:25 | 52.03415 | -0.64202 | 18335 ft | 376 kts | 328° |
| 2026-05-05 14:25 | 52.05647 | -0.66389 | 17950 ft | 373 kts | 328° |
| 2026-05-05 14:25 | 52.07865 | -0.68569 | 17592 ft | 372 kts | 328° |
| 2026-05-05 14:26 | 52.10070 | -0.70738 | 17242 ft | 369 kts | 327° |
| 2026-05-05 14:26 | 52.12264 | -0.72898 | 16883 ft | 367 kts | 327° |
| 2026-05-05 14:26 | 52.14413 | -0.75015 | 16552 ft | 365 kts | 328° |
| 2026-05-05 14:26 | 52.16581 | -0.77156 | 16206 ft | 363 kts | 327° |
| 2026-05-05 14:27 | 52.18733 | -0.79283 | 15862 ft | 361 kts | 327° |
| 2026-05-05 14:27 | 52.20869 | -0.81404 | 15386 ft | 360 kts | 326° |
| 2026-05-05 14:27 | 52.22824 | -0.83929 | 14848 ft | 358 kts | 313° |
| 2026-05-05 14:27 | 52.24369 | -0.87098 | 14312 ft | 357 kts | 300° |
| 2026-05-05 14:28 | 52.25427 | -0.90737 | 13782 ft | 355 kts | 288° |
| 2026-05-05 14:28 | 52.26028 | -0.94640 | 13209 ft | 354 kts | 282° |
| 2026-05-05 14:28 | 52.26560 | -0.98563 | 12633 ft | 353 kts | 282° |
| 2026-05-05 14:28 | 52.27088 | -1.02419 | 12075 ft | 352 kts | 282° |
| 2026-05-05 14:29 | 52.27622 | -1.06303 | 11516 ft | 350 kts | 282° |
| 2026-05-05 14:29 | 52.28151 | -1.10169 | 10971 ft | 348 kts | 282° |
| 2026-05-05 14:29 | 52.28673 | -1.13991 | 10438 ft | 338 kts | 283° |
| 2026-05-05 14:29 | 52.29172 | -1.17672 | 9959 ft | 328 kts | 283° |
| 2026-05-05 14:30 | 52.29652 | -1.21223 | 9434 ft | 314 kts | 283° |
| 2026-05-05 14:30 | 52.30114 | -1.24636 | 8910 ft | 302 kts | 283° |
| 2026-05-05 14:30 | 52.30557 | -1.27926 | 8379 ft | 292 kts | 283° |
| 2026-05-05 14:30 | 52.30984 | -1.31108 | 7872 ft | 283 kts | 283° |
| 2026-05-05 14:31 | 52.31395 | -1.34169 | 7378 ft | 277 kts | 283° |
| 2026-05-05 14:31 | 52.31804 | -1.37217 | 6843 ft | 272 kts | 283° |
| 2026-05-05 14:31 | 52.32204 | -1.40207 | 6293 ft | 267 kts | 283° |
| 2026-05-05 14:31 | 52.32600 | -1.43155 | 5719 ft | 263 kts | 283° |
| 2026-05-05 14:32 | 52.32988 | -1.46063 | 5149 ft | 260 kts | 284° |
| 2026-05-05 14:32 | 52.33369 | -1.48933 | 4578 ft | 257 kts | 284° |
| 2026-05-05 14:32 | 52.33744 | -1.51774 | 4002 ft | 254 kts | 284° |
| 2026-05-05 14:32 | 52.34109 | -1.54553 | 3455 ft | 252 kts | 283° |
| 2026-05-05 14:33 | 52.34476 | -1.57347 | 2879 ft | 252 kts | 283° |
| 2026-05-05 14:33 | 52.34850 | -1.60185 | 2356 ft | 257 kts | 284° |
| 2026-05-05 14:33 | 52.35447 | -1.62902 | 2033 ft | 250 kts | 304° |
| 2026-05-05 14:33 | 52.36559 | -1.64957 | 1994 ft | 233 kts | 324° |
| 2026-05-05 14:34 | 52.37847 | -1.66408 | 2002 ft | 218 kts | 327° |
| 2026-05-05 14:34 | 52.39072 | -1.67779 | 1954 ft | 210 kts | 327° |
| 2026-05-05 14:34 | 52.40302 | -1.69154 | 1512 ft | 218 kts | 327° |
| 2026-05-05 14:34 | 52.41547 | -1.70540 | 1142 ft | 214 kts | 327° |
| 2026-05-05 14:35 | 52.42752 | -1.71878 | 837 ft | 210 kts | 327° |
| 2026-05-05 14:35 | 52.43956 | -1.73208 | 789 ft | 216 kts | 327° |
| 2026-05-05 14:35 | 52.45215 | -1.74577 | 2083 ft | 221 kts | 328° |
| 2026-05-05 14:35 | 52.46554 | -1.75929 | 2658 ft | 220 kts | 339° |
| 2026-05-05 14:36 | 52.48018 | -1.76205 | 2910 ft | 213 kts | 12° |
| 2026-05-05 14:36 | 52.49305 | -1.75069 | 2992 ft | 214 kts | 46° |
| 2026-05-05 14:36 | 52.50135 | -1.73017 | 3003 ft | 218 kts | 65° |
| 2026-05-05 14:36 | 52.50300 | -1.70567 | 3006 ft | 222 kts | 100° |
| 2026-05-05 14:37 | 52.49581 | -1.68329 | 3001 ft | 226 kts | 134° |
| 2026-05-05 14:37 | 52.48404 | -1.66655 | 3010 ft | 228 kts | 140° |
| 2026-05-05 14:37 | 52.47160 | -1.65027 | 3007 ft | 229 kts | 140° |
| 2026-05-05 14:37 | 52.45909 | -1.63412 | 3008 ft | 228 kts | 140° |
| 2026-05-05 14:38 | 52.44659 | -1.61810 | 3010 ft | 228 kts | 141° |
| 2026-05-05 14:38 | 52.43407 | -1.60209 | 3009 ft | 229 kts | 141° |
| 2026-05-05 14:38 | 52.42156 | -1.58601 | 3009 ft | 228 kts | 140° |
| 2026-05-05 14:38 | 52.40899 | -1.56993 | 3006 ft | 230 kts | 141° |
| 2026-05-05 14:39 | 52.39650 | -1.55388 | 2835 ft | 227 kts | 140° |
| 2026-05-05 14:39 | 52.38402 | -1.53835 | 2663 ft | 223 kts | 148° |
| 2026-05-05 14:39 | 52.36984 | -1.53019 | 2542 ft | 219 kts | 175° |
| 2026-05-05 14:39 | 52.35507 | -1.53348 | 2422 ft | 214 kts | 204° |
| 2026-05-05 14:40 | 52.34307 | -1.54703 | 2287 ft | 210 kts | 230° |
| 2026-05-05 14:40 | 52.33569 | -1.56715 | 2160 ft | 205 kts | 255° |
| 2026-05-05 14:40 | 52.33395 | -1.58976 | 2069 ft | 199 kts | 278° |
| 2026-05-05 14:40 | 52.33760 | -1.61087 | 1999 ft | 189 kts | 302° |
| 2026-05-05 14:41 | 52.34557 | -1.62756 | 2004 ft | 185 kts | 322° |
| 2026-05-05 14:41 | 52.35607 | -1.63974 | 2011 ft | 192 kts | 328° |
| 2026-05-05 14:41 | 52.36725 | -1.65204 | 2026 ft | 187 kts | 328° |
| 2026-05-05 14:41 | 52.37744 | -1.66331 | 1958 ft | 173 kts | 328° |
| 2026-05-05 14:42 | 52.38715 | -1.67406 | 1794 ft | 163 kts | 328° |
| 2026-05-05 14:42 | 52.39609 | -1.68395 | 1601 ft | 146 kts | 328° |
| 2026-05-05 14:42 | 52.40428 | -1.69302 | 1416 ft | 139 kts | 329° |
| 2026-05-05 14:42 | 52.41250 | -1.70212 | 1212 ft | 143 kts | 327° |
| 2026-05-05 14:43 | 52.42060 | -1.71111 | 1001 ft | 138 kts | 328° |
| 2026-05-05 14:43 | 52.42845 | -1.71981 | 811 ft | 135 kts | 328° |
| 2026-05-05 14:43 | 52.43617 | -1.72838 | 633 ft | 134 kts | 328° |
| 2026-05-05 14:43 | 52.44376 | -1.73684 | 413 ft | 134 kts | 328° |
| 2026-05-05 14:44 | 52.45127 | -1.74522 | 329 ft | 121 kts | 328° |
| 2026-05-05 14:44 | 52.45688 | -1.75138 | 325 ft | 72 kts | 324° |
| 2026-05-05 14:44 | 52.45959 | -1.75442 | 323 ft | 30 kts | 325° |
| 2026-05-05 14:44 | 52.46081 | -1.75579 | 316 ft | 16 kts | 325° |
| 2026-05-05 14:45 | 52.46174 | -1.75561 | 315 ft | 17 kts | 53° |
| 2026-05-05 14:45 | 52.46208 | -1.75405 | 313 ft | 16 kts | 127° |
| 2026-05-05 14:45 | 52.46121 | -1.75296 | 317 ft | 16 kts | 146° |
| 2026-05-05 14:45 | 52.46023 | -1.75188 | 321 ft | 18 kts | 145° |
| 2026-05-05 14:46 | 52.45911 | -1.75063 | 326 ft | 21 kts | 146° |
| 2026-05-05 14:46 | 52.45779 | -1.74915 | 325 ft | 24 kts | 145° |
| 2026-05-05 14:46 | 52.45641 | -1.74764 | 326 ft | 21 kts | 146° |
| 2026-05-05 14:46 | 52.45526 | -1.74636 | 323 ft | 18 kts | 145° |
| 2026-05-05 14:47 | 52.45451 | -1.74501 | 328 ft | 14 kts | 117° |
| 2026-05-05 14:47 | 52.45413 | -1.74376 | 332 ft | 12 kts | 116° |
| 2026-05-05 14:47 | 52.45373 | -1.74248 | 330 ft | 12 kts | 117° |
| 2026-05-05 14:47 | 52.45333 | -1.74116 | 328 ft | 12 kts | 116° |
| 2026-05-05 14:48 | 52.45294 | -1.73999 | 329 ft | 11 kts | 133° |
| 2026-05-05 14:48 | 52.45234 | -1.73930 | 328 ft | 12 kts | 149° |
| 2026-05-05 14:48 | 52.45169 | -1.73858 | 327 ft | 11 kts | 145° |
| 2026-05-05 14:48 | 52.45109 | -1.73784 | 327 ft | 13 kts | 128° |
| 2026-05-05 14:49 | 52.45137 | -1.73637 | 329 ft | 12 kts | 56° |
| 2026-05-05 14:49 | 52.45177 | -1.73540 | 328 ft | 8 kts | 56° |
| 2026-05-05 14:49 | 52.45214 | -1.73474 | 329 ft | 7 kts | 9° |
| 2026-05-05 14:49 | 52.45253 | -1.73510 | 329 ft | 2 kts | 327° |
| 2026-05-05 14:50 | 52.45257 | -1.73514 | 327 ft | 2 kts | 327° |
| 2026-05-05 14:50 | 52.45272 | -1.73530 | 329 ft | 2 kts | 325° |
| 2026-05-05 14:50 | 52.45279 | -1.73539 | 329 ft | 0 kts | 326° |